Time;durP1;ratioP1;P1;durP2;ratioP2;P2;SDS_P1;SDS_P2;PMS_P1;PMS_P2;Temp;Humidity;BMP_temperature;BMP_pressure;BME280_temperature;BME280_humidity;BME280_pressure;Samples;Min_cycle;Max_cycle;Signal;HPM_P1;HPM_P2
2022/07/30 00:02:17;;;;;;;6.80;3.80;;;14.80;99.90;;;;;;7334189;32;20167;-61
2022/07/30 00:06:19;;;;;;;5.60;3.20;;;14.80;99.90;;;;;;7334515;32;20107;-61
2022/07/30 00:10:22;;;;;;;6.93;3.33;;;14.80;99.90;;;;;;7333880;32;20135;-61
2022/07/30 00:14:24;;;;;;;7.95;3.95;;;14.70;99.90;;;;;;7333190;32;20145;-61
2022/07/30 00:18:26;;;;;;;7.43;3.65;;;14.60;99.90;;;;;;7333663;32;20149;-61
2022/07/30 00:22:28;;;;;;;8.15;3.40;;;14.50;99.90;;;;;;7334140;32;20205;-61
2022/07/30 00:26:30;;;;;;;7.70;4.00;;;14.40;99.90;;;;;;7334201;32;20135;-61
2022/07/30 00:30:32;;;;;;;7.00;4.22;;;14.30;99.90;;;;;;7332662;32;20187;-61
2022/07/30 00:34:34;;;;;;;7.25;3.70;;;14.30;99.90;;;;;;7333807;32;20178;-61
2022/07/30 00:38:35;;;;;;;11.82;4.10;;;14.20;99.90;;;;;;7332937;32;20173;-61
2022/07/30 00:42:45;;;;;;;5.10;3.97;;;14.20;99.90;;;;;;7333376;32;20734;-61
2022/07/30 00:46:47;;;;;;;4.68;3.60;;;14.10;99.90;;;;;;7333113;32;20112;-61
2022/07/30 00:50:48;;;;;;;7.70;3.95;;;14.10;99.90;;;;;;7332351;32;20116;-61
2022/07/30 00:54:50;;;;;;;11.68;4.87;;;14.00;99.90;;;;;;7341123;32;20175;-61
2022/07/30 00:58:52;;;;;;;6.30;3.97;;;14.00;99.90;;;;;;7341208;32;20166;-61
2022/07/30 01:02:54;;;;;;;8.20;4.07;;;13.90;99.90;;;;;;7332327;32;20112;-61
2022/07/30 01:06:55;;;;;;;9.05;3.80;;;13.90;99.90;;;;;;7332745;32;20107;-60
2022/07/30 01:10:58;;;;;;;6.03;4.07;;;13.80;99.90;;;;;;7331950;32;20194;-60
2022/07/30 01:15:02;;;;;;;7.50;4.05;;;13.70;99.90;;;;;;7332232;32;20487;-60
2022/07/30 01:23:40;;;;;;;9.25;5.45;;;13.60;99.90;;;;;;7332362;32;20485;-60
2022/07/30 01:27:52;;;;;;;6.20;4.65;;;13.60;99.90;;;;;;7332077;32;20150;-60
2022/07/30 01:31:58;;;;;;;6.97;4.15;;;13.60;99.90;;;;;;7332414;32;20111;-60
2022/07/30 01:36:01;;;;;;;5.28;4.15;;;13.50;99.90;;;;;;7331542;32;20253;-60
2022/07/30 01:40:04;;;;;;;10.98;4.15;;;13.40;99.90;;;;;;7331157;32;20491;-60
2022/07/30 01:44:07;;;;;;;5.45;4.37;;;13.40;99.90;;;;;;7331695;32;20115;-60
2022/07/30 01:48:10;;;;;;;7.25;4.03;;;13.40;99.90;;;;;;7331371;32;20597;-60
2022/07/30 01:52:14;;;;;;;9.18;4.55;;;13.30;99.90;;;;;;7331530;32;20467;-59
2022/07/30 01:56:18;;;;;;;9.75;5.10;;;13.20;99.90;;;;;;7349244;32;20115;-59
2022/07/30 02:00:29;;;;;;;8.48;4.70;;;13.20;99.90;;;;;;7330786;32;20154;-60
2022/07/30 02:04:31;;;;;;;8.60;4.68;;;13.20;99.90;;;;;;7331794;32;20131;-60
2022/07/30 02:08:38;;;;;;;12.98;5.03;;;13.20;99.90;;;;;;7330962;32;20115;-59
2022/07/30 02:12:47;;;;;;;9.45;4.80;;;13.10;99.90;;;;;;7331333;32;20166;-60
2022/07/30 02:16:53;;;;;;;6.47;4.47;;;13.00;99.90;;;;;;7335056;32;20115;-60
2022/07/30 02:21:07;;;;;;;6.20;4.62;;;13.00;99.90;;;;;;7355443;32;20129;-59
2022/07/30 02:25:19;;;;;;;8.32;6.55;;;13.00;99.90;;;;;;7357000;32;20122;-60
2022/07/30 02:29:22;;;;;;;5.57;4.82;;;13.00;99.90;;;;;;7355213;32;20111;-60
2022/07/30 02:33:39;;;;;;;9.60;5.00;;;12.90;99.90;;;;;;7356444;32;20156;-59
2022/07/30 02:37:53;;;;;;;7.85;4.90;;;12.90;99.90;;;;;;7359142;32;20158;-60
2022/07/30 02:41:55;;;;;;;6.25;4.70;;;12.80;99.90;;;;;;7361214;32;20175;-59
2022/07/30 02:45:59;;;;;;;7.43;4.50;;;12.70;99.90;;;;;;7361764;32;20160;-60
2022/07/30 02:50:02;;;;;;;9.55;4.62;;;12.70;99.90;;;;;;7360120;32;20489;-59
2022/07/30 02:54:04;;;;;;;7.20;4.47;;;12.70;99.90;;;;;;7357706;32;20175;-59
2022/07/30 02:58:07;;;;;;;6.40;4.80;;;12.70;99.90;;;;;;7334799;32;20136;-60
2022/07/30 03:02:12;;;;;;;9.65;4.55;;;12.60;99.90;;;;;;7335479;32;20150;-60
2022/07/30 03:06:16;;;;;;;6.85;4.62;;;12.50;99.90;;;;;;7335654;32;20752;-59
2022/07/30 03:10:19;;;;;;;7.62;4.82;;;12.50;99.90;;;;;;7334338;32;20206;-60
2022/07/30 03:14:21;;;;;;;5.78;5.18;;;12.50;99.90;;;;;;7335405;32;20136;-60
2022/07/30 03:18:31;;;;;;;6.22;5.32;;;12.50;99.90;;;;;;7334525;32;20186;-59
2022/07/30 03:22:38;;;;;;;10.05;4.93;;;12.40;99.90;;;;;;7335143;32;20202;-59
2022/07/30 03:26:42;;;;;;;9.55;5.22;;;12.40;99.90;;;;;;7334838;32;20161;-60
2022/07/30 03:30:44;;;;;;;5.55;5.05;;;12.40;99.90;;;;;;7334691;32;20118;-60
2022/07/30 03:34:46;;;;;;;8.27;4.95;;;12.40;99.90;;;;;;7334174;32;20656;-60
2022/07/30 03:38:48;;;;;;;7.62;4.68;;;12.30;99.90;;;;;;7334119;32;20151;-61
2022/07/30 03:42:51;;;;;;;8.48;5.35;;;12.30;99.90;;;;;;7334521;32;20107;-60
2022/07/30 03:46:54;;;;;;;6.53;5.10;;;12.30;99.90;;;;;;7334751;32;20241;-60
2022/07/30 03:50:58;;;;;;;6.12;5.20;;;12.20;99.90;;;;;;7333538;32;20468;-60
2022/07/30 03:55:02;;;;;;;6.53;5.55;;;12.20;99.90;;;;;;7343072;32;20142;-60
2022/07/30 03:59:04;;;;;;;7.00;5.15;;;12.20;99.90;;;;;;7340812;32;20111;-60
2022/07/30 04:03:07;;;;;;;7.43;6.43;;;12.20;99.90;;;;;;7333985;32;20119;-60
2022/07/30 04:07:09;;;;;;;7.72;5.75;;;12.20;99.90;;;;;;7333560;32;20217;-60
2022/07/30 04:11:11;;;;;;;11.35;5.47;;;12.10;99.90;;;;;;7331844;32;20437;-60
2022/07/30 04:15:13;;;;;;;9.27;6.05;;;12.10;99.90;;;;;;7333461;32;20107;-60
2022/07/30 04:19:38;;;;;;;10.43;6.50;;;12.10;99.90;;;;;;7332356;32;20585;-60
2022/07/30 04:23:42;;;;;;;10.05;6.15;;;12.20;99.90;;;;;;7332831;32;20768;-60
2022/07/30 04:28:05;;;;;;;8.30;6.18;;;12.10;99.90;;;;;;7332063;32;20501;-60
2022/07/30 04:32:08;;;;;;;10.27;6.20;;;12.20;99.90;;;;;;7332952;32;20170;-60
2022/07/30 04:36:10;;;;;;;8.18;6.37;;;12.30;99.90;;;;;;7332728;32;20179;-60
2022/07/30 04:40:17;;;;;;;7.85;6.18;;;12.40;99.90;;;;;;7331819;32;20514;-60
2022/07/30 04:44:19;;;;;;;7.00;5.75;;;12.40;99.90;;;;;;7332306;32;20285;-61
2022/07/30 04:48:21;;;;;;;8.32;6.05;;;12.60;99.90;;;;;;7331880;32;20112;-60
2022/07/30 04:52:23;;;;;;;12.52;6.37;;;12.80;99.90;;;;;;7332501;32;20118;-60
2022/07/30 04:56:26;;;;;;;9.13;6.68;;;13.10;99.90;;;;;;7350305;32;20484;-60
2022/07/30 05:00:28;;;;;;;10.48;5.50;;;13.40;99.90;;;;;;7335987;32;20211;-60
2022/07/30 05:04:34;;;;;;;7.50;5.90;;;13.50;99.90;;;;;;7352356;32;20164;-60
2022/07/30 05:08:37;;;;;;;6.60;5.18;;;13.80;99.90;;;;;;7357066;32;20188;-60
2022/07/30 05:12:39;;;;;;;9.85;4.70;;;14.00;99.90;;;;;;7357433;32;20269;-60
2022/07/30 05:16:55;;;;;;;9.23;5.12;;;14.30;99.90;;;;;;7358302;32;20182;-60
2022/07/30 05:20:57;;;;;;;8.38;4.65;;;14.60;99.90;;;;;;7357297;32;20129;-60
2022/07/30 05:24:59;;;;;;;11.45;5.55;;;14.70;99.90;;;;;;7357830;32;20623;-60
2022/07/30 05:29:14;;;;;;;8.73;5.87;;;14.60;99.90;;;;;;7357556;32;20126;-60
2022/07/30 05:33:36;;;;;;;8.98;5.60;;;14.70;99.90;;;;;;7357547;32;20111;-60
2022/07/30 05:37:43;;;;;;;9.35;6.18;;;14.70;99.90;;;;;;7357157;32;20242;-60
2022/07/30 05:41:45;;;;;;;12.80;7.35;;;14.70;99.90;;;;;;7357818;32;20133;-60
2022/07/30 05:45:46;;;;;;;12.73;8.13;;;14.80;99.90;;;;;;7357673;32;20111;-60
2022/07/30 05:49:48;;;;;;;20.23;14.27;;;14.90;99.90;;;;;;7356665;32;20130;-61
2022/07/30 05:53:50;;;;;;;25.90;17.58;;;15.10;99.90;;;;;;7355846;32;20560;-60
2022/07/30 05:57:52;;;;;;;43.90;27.35;;;15.40;99.90;;;;;;7341341;32;20176;-60
2022/07/30 06:01:54;;;;;;;59.38;29.98;;;15.60;99.90;;;;;;7357230;32;20162;-60
2022/07/30 06:05:55;;;;;;;71.28;36.30;;;15.80;99.90;;;;;;7357719;32;20119;-61
2022/07/30 06:09:59;;;;;;;81.35;42.28;;;15.80;99.90;;;;;;7356035;32;20531;-60
2022/07/30 06:14:01;;;;;;;92.72;44.28;;;16.00;99.90;;;;;;7361037;32;20571;-61
2022/07/30 06:18:02;;;;;;;89.05;43.10;;;15.90;99.90;;;;;;7361389;32;20168;-60
2022/07/30 06:22:06;;;;;;;82.43;43.35;;;15.90;99.90;;;;;;7362011;32;20111;-60
2022/07/30 06:26:08;;;;;;;84.00;43.60;;;16.00;99.90;;;;;;7361894;32;20504;-60
2022/07/30 06:30:10;;;;;;;88.87;45.78;;;16.00;99.90;;;;;;7360733;32;20560;-61
2022/07/30 06:34:12;;;;;;;92.62;47.62;;;16.00;99.90;;;;;;7361153;32;20603;-64
2022/07/30 06:38:14;;;;;;;98.03;53.87;;;16.10;99.90;;;;;;7360402;32;20156;-64
2022/07/30 06:42:16;;;;;;;118.47;61.67;;;16.00;99.90;;;;;;7360921;32;20540;-65
2022/07/30 06:46:17;;;;;;;117.78;62.15;;;16.00;99.90;;;;;;7360765;32;20702;-65
2022/07/30 06:50:19;;;;;;;115.15;58.95;;;16.10;99.90;;;;;;7360023;32;20231;-65
2022/07/30 06:54:21;;;;;;;99.35;57.70;;;16.00;99.90;;;;;;7355143;32;20119;-64
2022/07/30 06:58:23;;;;;;;98.60;57.30;;;16.10;99.90;;;;;;7347228;32;20256;-64
2022/07/30 07:02:26;;;;;;;89.95;52.40;;;16.10;99.90;;;;;;7359750;32;20175;-66
2022/07/30 07:06:28;;;;;;;79.35;47.38;;;16.10;99.90;;;;;;7359931;32;20178;-64
2022/07/30 07:10:30;;;;;;;63.90;39.40;;;16.10;99.90;;;;;;7359400;32;20260;-64
2022/07/30 07:14:31;;;;;;;63.08;41.37;;;16.10;99.90;;;;;;7359649;32;20222;-64
2022/07/30 07:18:33;;;;;;;64.68;43.87;;;16.20;99.90;;;;;;7358678;32;20194;-64
2022/07/30 07:22:35;;;;;;;69.93;44.00;;;16.20;99.90;;;;;;7357747;32;20115;-65
2022/07/30 07:26:37;;;;;;;79.20;50.35;;;16.30;99.90;;;;;;7359271;32;20111;-64
2022/07/30 07:30:40;;;;;;;101.07;57.30;;;16.50;99.90;;;;;;7358094;32;20116;-64
2022/07/30 07:34:42;;;;;;;94.30;56.53;;;16.60;99.90;;;;;;7359311;32;20107;-64
2022/07/30 07:38:44;;;;;;;78.35;49.00;;;16.70;99.90;;;;;;7357980;32;20275;-64
2022/07/30 07:42:46;;;;;;;78.32;49.33;;;16.80;99.90;;;;;;7359514;32;20111;-64
2022/07/30 07:46:48;;;;;;;85.87;51.85;;;17.00;99.90;;;;;;7359212;32;20201;-64
2022/07/30 07:50:49;;;;;;;91.05;59.35;;;17.00;99.90;;;;;;7357853;32;20214;-64
2022/07/30 07:54:51;;;;;;;78.90;54.35;;;17.20;99.90;;;;;;7350250;32;20209;-65
2022/07/30 07:58:53;;;;;;;60.10;46.25;;;17.50;99.90;;;;;;7348584;32;20423;-64
2022/07/30 08:02:57;;;;;;;58.15;42.95;;;17.30;99.90;;;;;;7358658;32;20182;-64
2022/07/30 08:06:59;;;;;;;36.80;28.62;;;17.50;99.90;;;;;;7358720;32;20179;-64
2022/07/30 08:11:01;;;;;;;29.40;23.65;;;17.70;99.90;;;;;;7357143;32;20156;-64
2022/07/30 08:15:03;;;;;;;26.62;22.80;;;17.70;99.90;;;;;;7358787;32;20131;-64
2022/07/30 08:19:05;;;;;;;24.25;19.87;;;17.90;99.90;;;;;;7357656;32;20122;-63
2022/07/30 08:23:07;;;;;;;24.73;19.90;;;18.10;99.90;;;;;;7356731;32;20131;-63
2022/07/30 08:27:09;;;;;;;23.65;19.00;;;18.30;99.90;;;;;;7357738;32;20099;-64
2022/07/30 08:31:10;;;;;;;20.48;17.50;;;18.50;99.90;;;;;;7356599;32;20119;-62
2022/07/30 08:35:12;;;;;;;21.05;15.30;;;18.80;99.90;;;;;;7357299;32;20115;-62
2022/07/30 08:39:14;;;;;;;15.43;13.32;;;19.60;99.90;;;;;;7356760;32;20199;-63
2022/07/30 08:43:17;;;;;;;13.10;10.80;;;20.10;99.90;;;;;;7357965;32;20233;-63
2022/07/30 08:47:24;;;;;;;14.45;10.85;;;21.10;99.90;;;;;;7357844;32;20148;-63
2022/07/30 08:51:27;;;;;;;15.95;11.32;;;22.00;99.90;;;;;;7356260;32;20133;-63
2022/07/30 08:55:29;;;;;;;16.65;10.50;;;22.80;99.90;;;;;;7345082;32;20185;-63
2022/07/30 08:59:31;;;;;;;15.05;9.50;;;23.50;99.90;;;;;;7351392;32;20176;-62
2022/07/30 09:03:52;;;;;;;15.18;8.57;;;23.60;99.90;;;;;;7357621;32;20115;-62
2022/07/30 09:07:54;;;;;;;13.68;9.30;;;23.90;99.90;;;;;;7356792;32;20107;-63
2022/07/30 09:11:56;;;;;;;11.68;8.10;;;24.40;99.90;;;;;;7356844;32;20451;-63
2022/07/30 09:15:58;;;;;;;13.40;8.38;;;24.10;99.90;;;;;;7357538;32;20133;-63
2022/07/30 09:20:04;;;;;;;14.05;7.90;;;24.00;99.90;;;;;;7356356;32;20195;-62
2022/07/30 09:24:09;;;;;;;17.65;7.65;;;23.50;99.90;;;;;;7357182;32;20625;-62
2022/07/30 09:28:12;;;;;;;11.50;7.03;;;23.40;99.90;;;;;;7356443;32;20482;-63
2022/07/30 09:32:17;;;;;;;12.80;7.25;;;24.40;99.90;;;;;;7357170;32;20112;-63
2022/07/30 09:36:19;;;;;;;10.82;6.22;;;24.10;99.90;;;;;;7357176;32;20111;-62
2022/07/30 09:40:21;;;;;;;12.70;6.62;;;23.50;99.90;;;;;;7355620;32;20166;-63
2022/07/30 09:44:32;;;;;;;9.25;6.32;;;23.80;99.90;;;;;;7356325;32;20540;-62
2022/07/30 09:48:34;;;;;;;12.95;6.53;;;24.40;99.90;;;;;;7356346;32;20171;-63
2022/07/30 09:52:37;;;;;;;13.82;5.53;;;25.00;99.90;;;;;;7357069;32;20583;-63
2022/07/30 09:56:45;;;;;;;7.75;5.12;;;26.10;99.90;;;;;;7339452;32;20111;-63
2022/07/30 10:00:57;;;;;;;8.73;4.82;;;26.00;99.90;;;;;;7355246;32;20172;-63
2022/07/30 10:05:12;;;;;;;13.65;5.05;;;26.20;99.90;;;;;;7356852;32;20103;-63
2022/07/30 10:09:33;;;;;;;9.00;3.92;;;26.40;99.90;;;;;;7355728;32;20577;-63
2022/07/30 10:13:39;;;;;;;9.25;4.57;;;26.00;99.90;;;;;;7356758;32;20138;-63
2022/07/30 10:17:47;;;;;;;10.07;4.00;;;26.70;99.90;;;;;;7356166;32;20107;-63
2022/07/30 10:21:49;;;;;;;5.87;3.45;;;26.10;99.90;;;;;;7356157;32;20115;-63
2022/07/30 10:25:55;;;;;;;9.75;3.00;;;26.00;99.90;;;;;;7356205;32;20170;-63
2022/07/30 10:29:58;;;;;;;7.37;2.60;;;26.30;99.90;;;;;;7355198;32;20157;-63
2022/07/30 10:34:04;;;;;;;8.45;2.70;;;26.30;97.90;;;;;;7355735;32;20197;-63
2022/07/30 10:38:10;;;;;;;6.37;3.00;;;26.20;99.90;;;;;;7355370;32;20246;-63
2022/07/30 10:42:25;;;;;;;;;;;25.90;97.40;;;;;;7356233;32;20569;-63
2022/07/30 10:46:42;;;;;;;6.30;2.42;;;26.40;98.70;;;;;;7355550;32;20392;-63
2022/07/30 10:51:02;;;;;;;6.65;2.45;;;26.40;99.50;;;;;;7354650;32;20178;-63
2022/07/30 10:55:14;;;;;;;4.78;1.98;;;26.80;95.00;;;;;;7345758;32;20507;-63
2022/07/30 10:59:16;;;;;;;8.23;2.72;;;26.90;94.70;;;;;;7352123;32;20108;-63
2022/07/30 11:03:24;;;;;;;5.28;2.00;;;26.40;93.10;;;;;;7359771;32;20106;-63
2022/07/30 11:07:45;;;;;;;6.25;1.83;;;26.00;96.70;;;;;;7359839;32;20148;-63
2022/07/30 11:11:50;;;;;;;4.05;1.87;;;26.30;94.70;;;;;;7360028;32;20130;-63
2022/07/30 11:16:07;;;;;;;3.92;2.00;;;26.40;93.20;;;;;;7359897;32;20158;-63
2022/07/30 11:20:10;;;;;;;4.30;2.10;;;26.20;91.30;;;;;;7359141;32;20194;-63
2022/07/30 11:24:45;;;;;;;7.30;1.90;;;25.80;94.10;;;;;;7359453;32;20107;-63
2022/07/30 11:28:46;;;;;;;3.97;1.85;;;25.40;92.90;;;;;;7358904;32;20103;-63
2022/07/30 11:32:52;;;;;;;5.45;2.10;;;25.60;95.20;;;;;;7359285;32;20221;-62
2022/07/30 11:37:07;;;;;;;4.85;1.50;;;25.30;94.50;;;;;;7358833;32;20115;-62
2022/07/30 11:41:22;;;;;;;5.85;1.50;;;25.50;91.30;;;;;;7358913;32;20162;-62
2022/07/30 11:45:25;;;;;;;4.43;1.77;;;25.70;90.60;;;;;;7359225;32;20133;-63
2022/07/30 11:49:34;;;;;;;5.22;2.10;;;25.60;91.00;;;;;;7358455;32;20115;-62
2022/07/30 11:53:36;;;;;;;7.78;2.00;;;25.30;92.10;;;;;;7358672;32;20166;-63
2022/07/30 11:57:41;;;;;;;5.35;2.03;;;25.50;95.10;;;;;;7340726;32;20115;-62
2022/07/30 12:01:48;;;;;;;4.50;1.27;;;25.30;92.50;;;;;;7358540;32;20107;-63
2022/07/30 12:05:50;;;;;;;5.75;1.60;;;25.50;91.80;;;;;;7358537;32;20255;-63
2022/07/30 12:10:15;;;;;;;5.95;2.55;;;25.80;92.60;;;;;;7357760;32;20500;-62
2022/07/30 12:14:16;;;;;;;3.10;1.92;;;25.70;93.10;;;;;;7357995;32;20171;-63
2022/07/30 12:18:27;;;;;;;3.30;1.58;;;25.60;92.60;;;;;;7357657;32;20491;-63
2022/07/30 12:22:31;;;;;;;5.60;1.92;;;25.60;91.80;;;;;;7358491;32;20130;-63
2022/07/30 12:26:34;;;;;;;5.25;1.62;;;25.30;91.10;;;;;;7358157;32;20119;-63
2022/07/30 12:30:40;;;;;;;4.68;2.25;;;25.30;92.50;;;;;;7356840;32;20166;-63
2022/07/30 12:34:55;;;;;;;4.65;1.80;;;25.50;89.60;;;;;;7357515;32;20362;-62
2022/07/30 12:38:57;;;;;;;2.92;1.85;;;25.40;93.10;;;;;;7356778;32;20551;-63
2022/07/30 12:42:59;;;;;;;3.85;1.55;;;25.30;89.30;;;;;;7357997;32;20551;-62
2022/07/30 12:47:03;;;;;;;4.15;1.42;;;25.40;90.20;;;;;;7357786;32;20158;-63
2022/07/30 12:51:08;;;;;;;4.18;1.50;;;26.00;90.10;;;;;;7357148;32;20122;-63
2022/07/30 12:55:11;;;;;;;4.12;1.62;;;25.60;89.30;;;;;;7347210;32;20289;-63
2022/07/30 12:59:22;;;;;;;5.70;1.50;;;25.00;91.10;;;;;;7349995;32;20107;-63
2022/07/30 13:03:26;;;;;;;3.15;1.30;;;25.20;91.70;;;;;;7357522;32;20182;-63
2022/07/30 13:07:30;;;;;;;4.85;1.50;;;25.20;92.60;;;;;;7357048;32;20119;-62
2022/07/30 13:11:44;;;;;;;6.07;1.75;;;25.30;90.20;;;;;;7357136;32;20182;-62
2022/07/30 13:16:06;;;;;;;4.12;1.70;;;25.50;91.70;;;;;;7357664;32;20226;-62
2022/07/30 13:20:09;;;;;;;2.55;1.20;;;25.50;90.00;;;;;;7356608;32;20111;-63
2022/07/30 13:24:11;;;;;;;3.17;1.40;;;25.60;91.60;;;;;;7358369;32;20190;-62
2022/07/30 13:28:19;;;;;;;2.85;1.35;;;25.50;91.10;;;;;;7356967;32;20103;-63
2022/07/30 13:32:21;;;;;;;3.97;1.40;;;25.70;92.20;;;;;;7356577;32;20286;-62
2022/07/30 13:36:23;;;;;;;1.52;1.00;;;25.80;92.70;;;;;;7357405;32;20198;-62
2022/07/30 13:40:25;;;;;;;4.05;1.30;;;25.80;91.00;;;;;;7356776;32;20156;-62
2022/07/30 13:44:26;;;;;;;1.87;1.08;;;26.10;93.50;;;;;;7356728;32;20175;-63
2022/07/30 13:48:28;;;;;;;4.82;1.30;;;26.00;91.90;;;;;;7355643;32;20160;-63
2022/07/30 13:52:30;;;;;;;3.22;0.90;;;25.90;92.30;;;;;;7356472;32;20114;-63
2022/07/30 13:56:32;;;;;;;3.65;1.10;;;26.10;91.70;;;;;;7339459;32;20471;-64
2022/07/30 14:00:43;;;;;;;3.42;0.90;;;26.00;91.30;;;;;;7356194;32;20220;-64
2022/07/30 14:04:45;;;;;;;3.25;0.98;;;26.00;93.00;;;;;;7356795;32;20203;-64
2022/07/30 14:08:48;;;;;;;2.70;1.20;;;26.60;91.00;;;;;;7355837;32;20210;-63
2022/07/30 14:12:55;;;;;;;2.85;1.27;;;26.60;86.90;;;;;;7356346;32;20179;-63
2022/07/30 14:16:56;;;;;;;2.47;1.10;;;26.60;88.30;;;;;;7357192;32;20145;-63
2022/07/30 14:20:59;;;;;;;3.28;0.95;;;26.10;88.40;;;;;;7355803;32;20189;-63
2022/07/30 14:25:00;;;;;;;4.32;1.23;;;26.10;90.50;;;;;;7356912;32;20258;-63
2022/07/30 14:29:04;;;;;;;3.25;1.00;;;26.50;90.50;;;;;;7355490;32;20121;-63
2022/07/30 14:33:06;;;;;;;4.22;0.90;;;26.80;90.20;;;;;;7358308;32;20139;-63
2022/07/30 14:37:08;;;;;;;3.92;1.05;;;27.00;87.20;;;;;;7361140;32;20224;-64
2022/07/30 14:41:15;;;;;;;6.37;1.35;;;27.10;87.00;;;;;;7360310;32;20181;-63
2022/07/30 14:45:16;;;;;;;2.03;1.10;;;27.10;87.20;;;;;;7361024;32;20132;-63
2022/07/30 14:49:19;;;;;;;4.28;1.20;;;27.00;88.30;;;;;;7360850;32;20129;-63
2022/07/30 14:53:21;;;;;;;3.20;1.10;;;27.10;84.80;;;;;;7360591;32;20202;-63
2022/07/30 14:57:23;;;;;;;6.12;1.35;;;27.10;88.90;;;;;;7343264;32;20112;-63
2022/07/30 15:01:25;;;;;;;4.07;1.10;;;26.70;90.50;;;;;;7360263;32;20139;-63
2022/07/30 15:05:26;;;;;;;1.65;0.90;;;26.60;89.80;;;;;;7360768;32;20138;-63
2022/07/30 15:09:28;;;;;;;4.35;1.17;;;26.70;89.20;;;;;;7359811;32;20115;-64
2022/07/30 15:13:30;;;;;;;2.72;0.93;;;27.00;89.50;;;;;;7360162;32;20585;-64
2022/07/30 15:17:33;;;;;;;3.42;0.95;;;27.10;86.90;;;;;;7360057;32;20484;-63
2022/07/30 15:21:34;;;;;;;3.67;1.00;;;26.50;88.40;;;;;;7360820;32;20634;-63
2022/07/30 15:25:36;;;;;;;7.15;1.37;;;25.90;87.60;;;;;;7360600;32;20153;-63
2022/07/30 15:29:38;;;;;;;4.15;1.00;;;25.60;89.90;;;;;;7359067;32;20175;-64
2022/07/30 15:33:41;;;;;;;3.22;1.00;;;25.30;91.60;;;;;;7346338;32;20179;-63
2022/07/30 15:37:43;;;;;;;3.08;1.12;;;25.50;90.50;;;;;;7340782;32;20107;-63
2022/07/30 15:41:45;;;;;;;3.30;1.10;;;25.60;91.20;;;;;;7349872;32;20170;-64
2022/07/30 15:45:47;;;;;;;2.05;0.80;;;25.50;90.30;;;;;;7351453;32;20183;-64
2022/07/30 15:49:57;;;;;;;2.08;0.70;;;25.50;90.90;;;;;;7354725;32;20133;-64
2022/07/30 15:53:58;;;;;;;4.53;1.10;;;25.60;91.30;;;;;;7352259;32;20186;-64
2022/07/30 15:58:00;;;;;;;4.00;1.58;;;25.60;92.10;;;;;;7350700;32;20150;-64
2022/07/30 16:02:02;;;;;;;4.90;1.42;;;25.60;91.30;;;;;;7347824;32;20232;-65
2022/07/30 16:06:04;;;;;;;3.83;1.15;;;25.60;91.10;;;;;;7354354;32;20502;-64
2022/07/30 16:10:06;;;;;;;2.78;1.08;;;25.40;92.20;;;;;;7353184;32;20127;-64
2022/07/30 16:14:09;;;;;;;2.97;1.00;;;25.30;92.10;;;;;;7347573;32;20128;-64
2022/07/30 16:18:10;;;;;;;3.28;0.80;;;25.40;91.30;;;;;;7342013;32;20111;-66
2022/07/30 16:22:12;;;;;;;3.30;1.20;;;25.50;91.30;;;;;;7351703;32;20119;-66
2022/07/30 16:26:23;;;;;;;2.75;1.00;;;25.20;91.30;;;;;;7336441;32;20107;-66
2022/07/30 16:30:25;;;;;;;3.53;1.20;;;25.00;91.90;;;;;;7343162;32;20254;-66
2022/07/30 16:34:28;;;;;;;1.90;1.15;;;24.80;94.20;;;;;;7341137;32;20370;-66
2022/07/30 16:38:30;;;;;;;3.35;1.12;;;24.60;93.30;;;;;;7351681;32;20512;-67
2022/07/30 16:42:31;;;;;;;3.55;0.98;;;24.50;93.80;;;;;;7344648;32;20273;-66
2022/07/30 16:46:33;;;;;;;4.35;0.90;;;24.30;94.10;;;;;;7348825;32;20131;-68
2022/07/30 16:50:35;;;;;;;2.28;0.90;;;24.20;94.90;;;;;;7342470;32;20122;-64
2022/07/30 16:54:37;;;;;;;6.10;1.20;;;24.20;94.60;;;;;;7341777;32;20131;-61
2022/07/30 16:58:39;;;;;;;5.35;0.95;;;24.40;94.70;;;;;;7331913;32;20670;-63
2022/07/30 17:02:40;;;;;;;1.60;0.80;;;24.40;94.30;;;;;;7337278;32;20128;-60
2022/07/30 17:06:43;;;;;;;2.35;0.90;;;24.40;94.60;;;;;;7346775;32;20107;-63
2022/07/30 17:10:45;;;;;;;4.97;1.80;;;24.40;95.20;;;;;;7347237;32;20174;-62
2022/07/30 17:14:56;;;;;;;4.40;0.93;;;24.50;95.20;;;;;;7345326;32;20323;-61
2022/07/30 17:18:57;;;;;;;5.07;1.25;;;24.40;93.80;;;;;;7347233;32;20107;-62
2022/07/30 17:22:59;;;;;;;7.68;0.98;;;24.10;95.00;;;;;;7347573;32;20111;-60
2022/07/30 17:27:01;;;;;;;2.53;1.10;;;23.90;94.90;;;;;;7350515;32;20198;-60
2022/07/30 17:31:03;;;;;;;3.95;1.40;;;23.70;95.90;;;;;;7340617;32;20134;-58
2022/07/30 17:35:05;;;;;;;2.42;0.98;;;23.60;96.30;;;;;;7353489;32;20171;-67
2022/07/30 17:39:14;;;;;;;2.83;1.30;;;23.50;96.50;;;;;;7347897;32;20148;-68
2022/07/30 17:43:36;;;;;;;2.33;0.90;;;23.40;97.10;;;;;;7339530;32;20111;-68
2022/07/30 17:47:38;;;;;;;5.18;1.00;;;23.30;98.20;;;;;;7344893;32;20615;-65
2022/07/30 17:51:40;;;;;;;3.22;1.23;;;23.40;97.10;;;;;;7338148;32;20171;-65
2022/07/30 17:55:41;;;;;;;4.62;1.35;;;23.40;97.30;;;;;;7351060;32;20259;-65
2022/07/30 17:59:58;;;;;;;1.92;0.98;;;23.40;98.40;;;;;;7347026;32;20111;-65
2022/07/30 18:04:02;;;;;;;3.75;1.17;;;23.40;98.50;;;;;;7348348;32;20266;-65
2022/07/30 18:08:04;;;;;;;5.10;1.17;;;23.40;98.70;;;;;;7344759;32;20213;-65
2022/07/30 18:12:06;;;;;;;3.92;1.20;;;23.40;99.30;;;;;;7345236;32;20179;-65
2022/07/30 18:16:09;;;;;;;2.85;1.08;;;23.40;99.70;;;;;;7350701;32;20123;-65
2022/07/30 18:20:11;;;;;;;3.83;1.30;;;23.40;98.60;;;;;;7347021;32;20527;-65
2022/07/30 18:24:13;;;;;;;1.58;0.88;;;23.20;99.50;;;;;;7349967;32;20107;-65
2022/07/30 18:28:16;;;;;;;2.35;0.80;;;23.10;99.90;;;;;;7350580;32;20677;-65
2022/07/30 18:32:18;;;;;;;2.50;1.08;;;23.00;99.90;;;;;;7352601;32;20147;-65
2022/07/30 18:36:20;;;;;;;3.83;0.93;;;22.90;99.90;;;;;;7356747;32;20170;-65
2022/07/30 18:40:22;;;;;;;3.37;1.10;;;22.80;99.90;;;;;;7350317;32;20283;-67
2022/07/30 18:44:25;;;;;;;2.62;1.20;;;22.70;99.90;;;;;;7349872;32;20115;-67
2022/07/30 18:48:27;;;;;;;4.00;1.55;;;22.50;99.90;;;;;;7347147;32;20127;-66
2022/07/30 18:52:29;;;;;;;3.65;1.20;;;22.40;99.90;;;;;;7348115;32;20103;-66
2022/07/30 18:56:30;;;;;;;3.30;1.40;;;22.30;99.90;;;;;;7350502;32;20119;-67
2022/07/30 19:00:32;;;;;;;4.55;1.33;;;22.20;99.90;;;;;;7346387;32;20365;-67
2022/07/30 19:04:36;;;;;;;2.78;1.00;;;22.10;99.90;;;;;;7346919;32;20520;-70
2022/07/30 19:08:38;;;;;;;3.83;1.23;;;22.00;99.90;;;;;;7349074;32;20197;-67
2022/07/30 19:12:39;;;;;;;4.47;1.60;;;21.90;99.90;;;;;;7353058;32;20187;-66
2022/07/30 19:16:42;;;;;;;4.00;1.20;;;21.70;99.90;;;;;;7353061;32;20180;-67
2022/07/30 19:20:44;;;;;;;2.83;1.20;;;21.50;99.90;;;;;;7341243;32;20188;-66
2022/07/30 19:24:46;;;;;;;5.90;1.33;;;21.40;99.90;;;;;;7349267;32;20130;-69
2022/07/30 19:28:48;;;;;;;3.87;1.40;;;21.20;99.90;;;;;;7346333;32;20571;-70
2022/07/30 19:32:49;;;;;;;5.47;1.25;;;21.10;99.90;;;;;;7349081;32;20104;-66
2022/07/30 19:36:51;;;;;;;7.05;1.77;;;20.90;99.90;;;;;;7350470;32;20194;-65
2022/07/30 19:40:54;;;;;;;6.47;1.65;;;20.80;99.90;;;;;;7349397;32;20519;-68
2022/07/30 19:44:55;;;;;;;2.47;1.50;;;20.70;99.90;;;;;;7349983;32;20188;-67
2022/07/30 19:48:58;;;;;;;7.70;1.60;;;20.60;99.90;;;;;;7348082;32;20190;-69
2022/07/30 19:53:01;;;;;;;2.65;1.30;;;20.50;99.90;;;;;;7356903;32;20119;-66
2022/07/30 19:57:03;;;;;;;7.80;1.83;;;20.40;99.90;;;;;;7346961;32;20114;-67
2022/07/30 20:01:05;;;;;;;10.10;1.60;;;20.40;99.90;;;;;;7351507;32;20111;-68
2022/07/30 20:05:10;;;;;;;7.95;2.03;;;20.20;99.90;;;;;;7352796;32;20100;-67
2022/07/30 20:09:15;;;;;;;5.12;1.50;;;20.20;99.90;;;;;;7351540;32;20234;-67
2022/07/30 20:13:17;;;;;;;5.32;1.67;;;20.10;99.90;;;;;;7347386;32;20115;-68
2022/07/30 20:17:22;;;;;;;3.42;1.40;;;20.00;99.90;;;;;;7346201;32;20123;-67
2022/07/30 20:21:24;;;;;;;3.72;1.70;;;20.00;99.90;;;;;;7330019;32;20194;-60
2022/07/30 20:25:46;;;;;;;7.40;1.60;;;19.90;99.90;;;;;;7338218;32;20165;-62
2022/07/30 20:29:49;;;;;;;2.87;1.77;;;19.80;99.90;;;;;;7328736;32;20111;-62
2022/07/30 20:33:51;;;;;;;4.45;1.73;;;19.70;99.90;;;;;;7333589;32;20214;-62
2022/07/30 20:37:53;;;;;;;4.45;1.67;;;19.70;99.90;;;;;;7339433;32;20440;-62
2022/07/30 20:42:12;;;;;;;3.35;1.90;;;19.60;99.90;;;;;;7345464;32;20572;-62
2022/07/30 20:46:15;;;;;;;6.93;1.70;;;19.60;99.90;;;;;;7338660;32;20667;-62
2022/07/30 20:50:17;;;;;;;3.37;2.03;;;19.60;99.90;;;;;;7326348;32;20241;-62
2022/07/30 20:54:31;;;;;;;4.90;1.90;;;19.60;99.90;;;;;;7343575;32;20108;-62
2022/07/30 20:58:33;;;;;;;7.28;2.05;;;19.50;99.90;;;;;;7335504;32;20218;-61
2022/07/30 21:02:35;;;;;;;6.35;2.20;;;19.50;99.90;;;;;;7336337;32;20142;-61
2022/07/30 21:06:43;;;;;;;3.87;2.12;;;19.40;99.90;;;;;;7329053;32;20154;-63
2022/07/30 21:10:45;;;;;;;3.20;1.95;;;19.40;99.90;;;;;;7341803;32;20157;-62